sensor_id;sensor_type;location;lat;lon;timestamp;pressure;altitude;pressure_sealevel;temperature;humidity
28312;BME280;15572;48.810;9.148;2023-03-01T00:03:59;98904.41;;;-2.82;100.00
28312;BME280;15572;48.810;9.148;2023-03-01T00:08:56;98907.84;;;-2.94;100.00
28312;BME280;15572;48.810;9.148;2023-03-01T00:13:54;98905.44;;;-2.99;100.00
28312;BME280;15572;48.810;9.148;2023-03-01T00:18:53;98895.25;;;-3.05;100.00
28312;BME280;15572;48.810;9.148;2023-03-01T00:23:50;98906.97;;;-2.94;100.00
28312;BME280;15572;48.810;9.148;2023-03-01T00:28:47;98906.03;;;-3.08;100.00
28312;BME280;15572;48.810;9.148;2023-03-01T00:33:44;98904.78;;;-3.02;100.00
28312;BME280;15572;48.810;9.148;2023-03-01T00:38:44;98906.69;;;-2.90;100.00
28312;BME280;15572;48.810;9.148;2023-03-01T00:43:41;98902.72;;;-2.97;100.00
28312;BME280;15572;48.810;9.148;2023-03-01T00:48:37;98905.66;;;-3.16;100.00
28312;BME280;15572;48.810;9.148;2023-03-01T00:53:35;98896.84;;;-3.16;100.00
28312;BME280;15572;48.810;9.148;2023-03-01T00:58:33;98906.41;;;-3.28;100.00
28312;BME280;15572;48.810;9.148;2023-03-01T01:03:29;98904.25;;;-3.21;100.00
28312;BME280;15572;48.810;9.148;2023-03-01T01:08:26;98896.66;;;-3.27;100.00
28312;BME280;15572;48.810;9.148;2023-03-01T01:13:22;98892.75;;;-3.36;100.00
28312;BME280;15572;48.810;9.148;2023-03-01T01:18:20;98891.94;;;-3.22;100.00
28312;BME280;15572;48.810;9.148;2023-03-01T01:23:17;98896.66;;;-3.13;100.00
28312;BME280;15572;48.810;9.148;2023-03-01T01:28:13;98890.41;;;-3.12;100.00
28312;BME280;15572;48.810;9.148;2023-03-01T01:33:09;98880.09;;;-3.03;100.00
28312;BME280;15572;48.810;9.148;2023-03-01T01:38:07;98872.16;;;-3.03;100.00
28312;BME280;15572;48.810;9.148;2023-03-01T01:43:21;98866.38;;;-3.09;100.00
28312;BME280;15572;48.810;9.148;2023-03-01T01:48:21;98867.44;;;-3.12;100.00
28312;BME280;15572;48.810;9.148;2023-03-01T01:53:20;98859.00;;;-3.18;100.00
28312;BME280;15572;48.810;9.148;2023-03-01T01:58:19;98864.03;;;-3.28;100.00
28312;BME280;15572;48.810;9.148;2023-03-01T02:03:19;98854.09;;;-3.38;100.00
28312;BME280;15572;48.810;9.148;2023-03-01T02:08:21;98851.72;;;-3.29;100.00
28312;BME280;15572;48.810;9.148;2023-03-01T02:13:19;98840.94;;;-3.54;100.00
28312;BME280;15572;48.810;9.148;2023-03-01T02:18:18;98839.50;;;-3.46;100.00
28312;BME280;15572;48.810;9.148;2023-03-01T02:23:16;98838.41;;;-3.27;100.00
28312;BME280;15572;48.810;9.148;2023-03-01T02:28:24;98824.19;;;-3.41;100.00
28312;BME280;15572;48.810;9.148;2023-03-01T02:33:21;98813.88;;;-3.17;100.00
28312;BME280;15572;48.810;9.148;2023-03-01T02:38:18;98807.69;;;-3.03;100.00
28312;BME280;15572;48.810;9.148;2023-03-01T02:43:16;98808.75;;;-3.06;100.00
28312;BME280;15572;48.810;9.148;2023-03-01T02:48:16;98800.53;;;-3.01;100.00
28312;BME280;15572;48.810;9.148;2023-03-01T02:53:17;98798.69;;;-2.86;100.00
28312;BME280;15572;48.810;9.148;2023-03-01T02:58:15;98791.09;;;-2.78;100.00
28312;BME280;15572;48.810;9.148;2023-03-01T03:03:13;98786.22;;;-2.72;100.00
28312;BME280;15572;48.810;9.148;2023-03-01T03:08:12;98774.59;;;-2.69;100.00
28312;BME280;15572;48.810;9.148;2023-03-01T03:13:13;98775.78;;;-2.61;100.00
28312;BME280;15572;48.810;9.148;2023-03-01T03:18:12;98776.00;;;-2.64;100.00
28312;BME280;15572;48.810;9.148;2023-03-01T03:23:08;98770.94;;;-2.54;100.00
28312;BME280;15572;48.810;9.148;2023-03-01T03:28:07;98777.41;;;-2.45;100.00
28312;BME280;15572;48.810;9.148;2023-03-01T03:33:05;98766.94;;;-2.47;100.00
28312;BME280;15572;48.810;9.148;2023-03-01T03:38:05;98757.81;;;-2.43;100.00
28312;BME280;15572;48.810;9.148;2023-03-01T03:43:07;98763.25;;;-2.32;100.00
28312;BME280;15572;48.810;9.148;2023-03-01T03:48:06;98773.66;;;-2.29;100.00
28312;BME280;15572;48.810;9.148;2023-03-01T03:53:05;98762.19;;;-2.29;100.00
28312;BME280;15572;48.810;9.148;2023-03-01T03:58:02;98758.13;;;-2.35;100.00
28312;BME280;15572;48.810;9.148;2023-03-01T04:03:03;98755.44;;;-2.21;100.00
28312;BME280;15572;48.810;9.148;2023-03-01T04:07:59;98749.59;;;-2.26;100.00
28312;BME280;15572;48.810;9.148;2023-03-01T04:13:02;98740.53;;;-2.23;100.00
28312;BME280;15572;48.810;9.148;2023-03-01T04:17:59;98736.09;;;-2.23;100.00
28312;BME280;15572;48.810;9.148;2023-03-01T04:23:02;98735.69;;;-2.17;100.00
28312;BME280;15572;48.810;9.148;2023-03-01T04:28:05;98725.50;;;-1.97;100.00
28312;BME280;15572;48.810;9.148;2023-03-01T04:33:03;98726.13;;;-2.06;100.00
28312;BME280;15572;48.810;9.148;2023-03-01T04:38:02;98729.00;;;-1.97;100.00
28312;BME280;15572;48.810;9.148;2023-03-01T04:42:58;98739.00;;;-1.88;100.00
28312;BME280;15572;48.810;9.148;2023-03-01T04:47:54;98736.56;;;-1.78;100.00
28312;BME280;15572;48.810;9.148;2023-03-01T04:52:53;98740.59;;;-1.73;100.00
28312;BME280;15572;48.810;9.148;2023-03-01T04:57:52;98726.25;;;-1.70;100.00
28312;BME280;15572;48.810;9.148;2023-03-01T05:02:51;98723.50;;;-1.68;100.00
28312;BME280;15572;48.810;9.148;2023-03-01T05:07:49;98740.59;;;-1.73;100.00
28312;BME280;15572;48.810;9.148;2023-03-01T05:12:45;98728.91;;;-1.70;100.00
28312;BME280;15572;48.810;9.148;2023-03-01T05:17:43;98733.88;;;-1.65;100.00
28312;BME280;15572;48.810;9.148;2023-03-01T05:22:41;98727.00;;;-1.55;100.00
28312;BME280;15572;48.810;9.148;2023-03-01T05:27:37;98720.59;;;-1.40;100.00
28312;BME280;15572;48.810;9.148;2023-03-01T05:32:34;98723.66;;;-1.34;100.00
28312;BME280;15572;48.810;9.148;2023-03-01T05:37:31;98716.81;;;-1.25;100.00
28312;BME280;15572;48.810;9.148;2023-03-01T05:42:28;98727.13;;;-1.20;100.00
28312;BME280;15572;48.810;9.148;2023-03-01T05:47:25;98722.94;;;-1.12;100.00
28312;BME280;15572;48.810;9.148;2023-03-01T05:52:22;98724.19;;;-1.05;100.00
28312;BME280;15572;48.810;9.148;2023-03-01T05:57:19;98717.69;;;-1.01;100.00
28312;BME280;15572;48.810;9.148;2023-03-01T06:02:16;98706.63;;;-0.95;100.00
28312;BME280;15572;48.810;9.148;2023-03-01T06:07:13;98703.00;;;-0.94;100.00
28312;BME280;15572;48.810;9.148;2023-03-01T06:12:10;98709.19;;;-0.93;100.00
28312;BME280;15572;48.810;9.148;2023-03-01T06:17:08;98713.28;;;-0.89;99.99
28312;BME280;15572;48.810;9.148;2023-03-01T06:22:04;98716.75;;;-1.00;100.00
28312;BME280;15572;48.810;9.148;2023-03-01T06:27:01;98720.50;;;-1.02;100.00
28312;BME280;15572;48.810;9.148;2023-03-01T06:31:57;98712.97;;;-1.08;100.00
28312;BME280;15572;48.810;9.148;2023-03-01T06:36:55;98706.03;;;-1.11;100.00
28312;BME280;15572;48.810;9.148;2023-03-01T06:41:54;98706.56;;;-1.06;100.00
28312;BME280;15572;48.810;9.148;2023-03-01T06:46:51;98706.63;;;-0.95;100.00
28312;BME280;15572;48.810;9.148;2023-03-01T06:51:48;98721.69;;;-0.82;100.00
28312;BME280;15572;48.810;9.148;2023-03-01T06:56:47;98721.84;;;-0.73;100.00
28312;BME280;15572;48.810;9.148;2023-03-01T07:01:44;98714.38;;;-0.68;99.71
28312;BME280;15572;48.810;9.148;2023-03-01T07:06:40;98707.34;;;-0.69;98.53
28312;BME280;15572;48.810;9.148;2023-03-01T07:11:40;98713.88;;;-0.73;98.18
28312;BME280;15572;48.810;9.148;2023-03-01T07:16:38;98707.88;;;-0.88;98.72
28312;BME280;15572;48.810;9.148;2023-03-01T07:21:34;98699.16;;;-0.90;99.31
28312;BME280;15572;48.810;9.148;2023-03-01T07:26:30;98698.94;;;-0.87;99.41
28312;BME280;15572;48.810;9.148;2023-03-01T07:31:27;98699.03;;;-0.88;99.34
28312;BME280;15572;48.810;9.148;2023-03-01T07:36:25;98697.00;;;-0.85;98.97
28312;BME280;15572;48.810;9.148;2023-03-01T07:41:21;98696.44;;;-0.77;98.81
28312;BME280;15572;48.810;9.148;2023-03-01T07:46:18;98688.03;;;-0.71;98.94
28312;BME280;15572;48.810;9.148;2023-03-01T07:51:14;98681.16;;;-0.62;98.77
28312;BME280;15572;48.810;9.148;2023-03-01T07:56:13;98682.75;;;-0.60;97.95
28312;BME280;15572;48.810;9.148;2023-03-01T08:01:13;98674.31;;;-0.54;97.90
28312;BME280;15572;48.810;9.148;2023-03-01T08:06:11;98677.06;;;-0.55;96.37
28312;BME280;15572;48.810;9.148;2023-03-01T08:11:12;98661.16;;;-0.44;96.31
28312;BME280;15572;48.810;9.148;2023-03-01T08:16:11;98674.97;;;-0.39;95.38
28312;BME280;15572;48.810;9.148;2023-03-01T08:21:10;98672.91;;;-0.35;94.98
28312;BME280;15572;48.810;9.148;2023-03-01T08:26:08;98673.38;;;-0.30;94.93
28312;BME280;15572;48.810;9.148;2023-03-01T08:31:15;98671.22;;;-0.25;94.21
28312;BME280;15572;48.810;9.148;2023-03-01T08:36:12;98663.16;;;-0.13;93.94
28312;BME280;15572;48.810;9.148;2023-03-01T08:41:08;98665.22;;;-0.05;93.40
28312;BME280;15572;48.810;9.148;2023-03-01T08:46:05;98657.38;;;0.05;92.60
28312;BME280;15572;48.810;9.148;2023-03-01T08:51:08;98652.78;;;0.18;92.32
28312;BME280;15572;48.810;9.148;2023-03-01T08:56:05;98645.25;;;0.34;92.06
28312;BME280;15572;48.810;9.148;2023-03-01T09:01:06;98643.06;;;0.39;89.80
28312;BME280;15572;48.810;9.148;2023-03-01T09:06:04;98635.09;;;0.50;88.95
28312;BME280;15572;48.810;9.148;2023-03-01T09:11:04;98633.63;;;0.57;87.97
28312;BME280;15572;48.810;9.148;2023-03-01T09:16:02;98630.19;;;0.77;87.99
28312;BME280;15572;48.810;9.148;2023-03-01T09:21:03;98619.88;;;0.84;86.41
28312;BME280;15572;48.810;9.148;2023-03-01T09:26:04;98612.44;;;0.99;85.64
28312;BME280;15572;48.810;9.148;2023-03-01T09:31:02;98605.63;;;1.06;84.55
28312;BME280;15572;48.810;9.148;2023-03-01T09:35:58;98607.13;;;1.19;84.21
28312;BME280;15572;48.810;9.148;2023-03-01T09:40:55;98600.06;;;1.30;83.73
28312;BME280;15572;48.810;9.148;2023-03-01T09:45:54;98605.66;;;1.47;83.38
28312;BME280;15572;48.810;9.148;2023-03-01T09:50:52;98612.88;;;1.56;81.47
28312;BME280;15572;48.810;9.148;2023-03-01T09:55:51;98592.31;;;1.68;81.45
28312;BME280;15572;48.810;9.148;2023-03-01T10:00:50;98585.03;;;1.70;79.70
28312;BME280;15572;48.810;9.148;2023-03-01T10:05:56;98582.00;;;1.84;78.47
28312;BME280;15572;48.810;9.148;2023-03-01T10:10:55;98582.84;;;2.15;79.29
28312;BME280;15572;48.810;9.148;2023-03-01T10:15:54;98570.78;;;2.21;75.97
28312;BME280;15572;48.810;9.148;2023-03-01T10:20:57;98561.03;;;2.40;77.94
28312;BME280;15572;48.810;9.148;2023-03-01T10:26:06;98557.66;;;2.58;76.57
28312;BME280;15572;48.810;9.148;2023-03-01T10:31:12;98552.47;;;2.56;74.12
28312;BME280;15572;48.810;9.148;2023-03-01T10:36:11;98549.22;;;2.52;73.11
28312;BME280;15572;48.810;9.148;2023-03-01T10:41:07;98545.03;;;2.79;73.75
28312;BME280;15572;48.810;9.148;2023-03-01T10:46:22;98527.72;;;3.12;74.07
28312;BME280;15572;48.810;9.148;2023-03-01T10:51:20;98534.31;;;3.27;72.77
28312;BME280;15572;48.810;9.148;2023-03-01T10:56:18;98532.31;;;3.58;72.78
28312;BME280;15572;48.810;9.148;2023-03-01T11:01:33;98519.44;;;3.71;69.23
28312;BME280;15572;48.810;9.148;2023-03-01T11:06:32;98511.59;;;3.97;69.44
28312;BME280;15572;48.810;9.148;2023-03-01T11:11:31;98504.03;;;4.19;66.45
28312;BME280;15572;48.810;9.148;2023-03-01T11:16:31;98497.72;;;4.56;65.60
28312;BME280;15572;48.810;9.148;2023-03-01T11:21:32;98486.63;;;5.04;63.15
28312;BME280;15572;48.810;9.148;2023-03-01T11:26:31;98488.66;;;5.71;62.31
28312;BME280;15572;48.810;9.148;2023-03-01T11:31:31;98475.72;;;6.34;58.16
28312;BME280;15572;48.810;9.148;2023-03-01T11:36:32;98457.00;;;6.99;56.02
28312;BME280;15572;48.810;9.148;2023-03-01T11:41:33;98450.56;;;7.41;53.67
28312;BME280;15572;48.810;9.148;2023-03-01T11:46:40;98442.16;;;7.28;52.55
28312;BME280;15572;48.810;9.148;2023-03-01T11:51:48;98455.81;;;7.42;52.60
28312;BME280;15572;48.810;9.148;2023-03-01T11:56:51;98434.56;;;7.39;51.68
28312;BME280;15572;48.810;9.148;2023-03-01T12:02:07;98423.84;;;7.86;51.83
28312;BME280;15572;48.810;9.148;2023-03-01T12:07:14;98404.50;;;7.83;50.49
28312;BME280;15572;48.810;9.148;2023-03-01T12:12:27;98403.19;;;8.10;49.88
28312;BME280;15572;48.810;9.148;2023-03-01T12:17:43;98383.53;;;8.01;49.69
28312;BME280;15572;48.810;9.148;2023-03-01T12:22:54;98377.38;;;8.15;50.36
28312;BME280;15572;48.810;9.148;2023-03-01T12:28:09;98364.63;;;8.85;48.39
28312;BME280;15572;48.810;9.148;2023-03-01T12:33:19;98357.09;;;9.33;47.51
28312;BME280;15572;48.810;9.148;2023-03-01T12:38:37;98350.28;;;9.81;45.78
28312;BME280;15572;48.810;9.148;2023-03-01T12:43:47;98343.38;;;9.20;46.42
28312;BME280;15572;48.810;9.148;2023-03-01T12:48:52;98338.34;;;8.79;47.68
28312;BME280;15572;48.810;9.148;2023-03-01T12:53:53;98318.94;;;8.99;47.25
28312;BME280;15572;48.810;9.148;2023-03-01T12:58:57;98324.53;;;8.60;47.67
28312;BME280;15572;48.810;9.148;2023-03-01T13:04:05;98308.09;;;8.84;47.63
28312;BME280;15572;48.810;9.148;2023-03-01T13:09:11;98305.25;;;8.63;47.27
28312;BME280;15572;48.810;9.148;2023-03-01T13:19:56;98300.53;;;9.17;46.55
28312;BME280;15572;48.810;9.148;2023-03-01T13:25:11;98300.72;;;9.30;45.88
28312;BME280;15572;48.810;9.148;2023-03-01T13:35:42;98295.88;;;9.25;45.98
28312;BME280;15572;48.810;9.148;2023-03-01T13:41:00;98295.97;;;9.17;45.58
28312;BME280;15572;48.810;9.148;2023-03-01T13:45:57;98298.03;;;9.45;45.12
28312;BME280;15572;48.810;9.148;2023-03-01T13:50:57;98286.66;;;9.49;45.82
28312;BME280;15572;48.810;9.148;2023-03-01T13:56:00;98287.84;;;9.76;44.89
28312;BME280;15572;48.810;9.148;2023-03-01T14:00:58;98286.38;;;10.09;44.63
28312;BME280;15572;48.810;9.148;2023-03-01T14:06:01;98292.69;;;10.17;44.10
28312;BME280;15572;48.810;9.148;2023-03-01T14:11:17;98272.22;;;10.50;43.73
28312;BME280;15572;48.810;9.148;2023-03-01T14:16:28;98276.88;;;10.35;44.35
28312;BME280;15572;48.810;9.148;2023-03-01T14:21:29;98281.88;;;10.38;44.18
28312;BME280;15572;48.810;9.148;2023-03-01T14:26:27;98288.88;;;10.68;43.91
28312;BME280;15572;48.810;9.148;2023-03-01T14:31:34;98290.00;;;10.02;44.34
28312;BME280;15572;48.810;9.148;2023-03-01T14:36:33;98292.97;;;9.56;45.74
28312;BME280;15572;48.810;9.148;2023-03-01T14:41:33;98306.22;;;9.07;46.63
28312;BME280;15572;48.810;9.148;2023-03-01T14:46:33;98298.19;;;9.14;46.92
28312;BME280;15572;48.810;9.148;2023-03-01T14:51:30;98294.53;;;8.92;47.58
28312;BME280;15572;48.810;9.148;2023-03-01T14:56:26;98307.28;;;8.98;47.75
28312;BME280;15572;48.810;9.148;2023-03-01T15:01:24;98301.66;;;8.70;48.26
28312;BME280;15572;48.810;9.148;2023-03-01T15:06:22;98304.16;;;8.72;48.25
28312;BME280;15572;48.810;9.148;2023-03-01T15:11:21;98310.19;;;8.59;48.33
28312;BME280;15572;48.810;9.148;2023-03-01T15:16:21;98307.19;;;8.31;49.04
28312;BME280;15572;48.810;9.148;2023-03-01T15:21:22;98297.53;;;8.37;49.25
28312;BME280;15572;48.810;9.148;2023-03-01T15:26:24;98303.78;;;8.37;48.96
28312;BME280;15572;48.810;9.148;2023-03-01T15:31:26;98295.28;;;8.18;49.88
28312;BME280;15572;48.810;9.148;2023-03-01T15:36:36;98286.78;;;8.06;50.08
28312;BME280;15572;48.810;9.148;2023-03-01T15:41:46;98294.22;;;7.96;50.12
28312;BME280;15572;48.810;9.148;2023-03-01T15:46:46;98297.03;;;7.80;50.24
28312;BME280;15572;48.810;9.148;2023-03-01T15:51:45;98280.59;;;7.67;50.71
28312;BME280;15572;48.810;9.148;2023-03-01T15:56:41;98282.28;;;7.68;50.64
28312;BME280;15572;48.810;9.148;2023-03-01T16:01:39;98270.88;;;7.57;50.99
28312;BME280;15572;48.810;9.148;2023-03-01T16:06:36;98268.09;;;7.74;51.10
28312;BME280;15572;48.810;9.148;2023-03-01T16:11:35;98259.25;;;7.57;51.42
28312;BME280;15572;48.810;9.148;2023-03-01T16:16:34;98271.66;;;7.27;52.07
28312;BME280;15572;48.810;9.148;2023-03-01T16:21:30;98272.06;;;7.00;52.14
28312;BME280;15572;48.810;9.148;2023-03-01T16:26:27;98275.50;;;6.78;53.09
28312;BME280;15572;48.810;9.148;2023-03-01T16:31:24;98268.47;;;6.60;54.36
28312;BME280;15572;48.810;9.148;2023-03-01T16:36:23;98266.28;;;6.48;54.74
28312;BME280;15572;48.810;9.148;2023-03-01T16:41:21;98279.91;;;6.30;55.13
28312;BME280;15572;48.810;9.148;2023-03-01T16:46:20;98281.91;;;6.12;55.62
28312;BME280;15572;48.810;9.148;2023-03-01T16:51:19;98279.88;;;5.98;55.70
28312;BME280;15572;48.810;9.148;2023-03-01T16:56:17;98290.38;;;5.83;56.18
28312;BME280;15572;48.810;9.148;2023-03-01T17:01:15;98295.38;;;5.70;56.93
28312;BME280;15572;48.810;9.148;2023-03-01T17:06:14;98308.41;;;5.57;57.42
28312;BME280;15572;48.810;9.148;2023-03-01T17:11:14;98314.78;;;5.47;57.88
28312;BME280;15572;48.810;9.148;2023-03-01T17:16:13;98318.59;;;5.37;58.05
28312;BME280;15572;48.810;9.148;2023-03-01T17:21:10;98321.91;;;5.31;58.54
28312;BME280;15572;48.810;9.148;2023-03-01T17:26:07;98323.88;;;5.21;58.50
28312;BME280;15572;48.810;9.148;2023-03-01T17:31:06;98342.22;;;5.07;58.88
28312;BME280;15572;48.810;9.148;2023-03-01T17:36:03;98341.59;;;4.88;59.95
28312;BME280;15572;48.810;9.148;2023-03-01T17:41:00;98342.56;;;4.79;60.47
28312;BME280;15572;48.810;9.148;2023-03-01T17:45:56;98340.13;;;4.68;61.56
28312;BME280;15572;48.810;9.148;2023-03-01T17:50:54;98344.75;;;4.57;62.47
28312;BME280;15572;48.810;9.148;2023-03-01T17:55:59;98348.03;;;4.51;62.41
28312;BME280;15572;48.810;9.148;2023-03-01T18:00:56;98339.25;;;4.41;62.74
28312;BME280;15572;48.810;9.148;2023-03-01T18:06:09;98349.22;;;4.31;63.74
28312;BME280;15572;48.810;9.148;2023-03-01T18:11:06;98343.56;;;4.16;63.94
28312;BME280;15572;48.810;9.148;2023-03-01T18:16:04;98342.69;;;3.98;64.01
28312;BME280;15572;48.810;9.148;2023-03-01T18:21:03;98341.59;;;3.91;64.75
28312;BME280;15572;48.810;9.148;2023-03-01T18:26:01;98341.97;;;3.78;65.75
28312;BME280;15572;48.810;9.148;2023-03-01T18:30:58;98344.84;;;3.67;66.09
28312;BME280;15572;48.810;9.148;2023-03-01T18:35:57;98347.28;;;3.61;66.04
28312;BME280;15572;48.810;9.148;2023-03-01T18:40:54;98343.94;;;3.49;66.38
28312;BME280;15572;48.810;9.148;2023-03-01T18:45:55;98347.41;;;3.32;67.29
28312;BME280;15572;48.810;9.148;2023-03-01T18:50:52;98337.50;;;3.15;68.60
28312;BME280;15572;48.810;9.148;2023-03-01T18:55:49;98337.28;;;2.99;69.12
28312;BME280;15572;48.810;9.148;2023-03-01T19:00:47;98329.56;;;2.86;70.89
28312;BME280;15572;48.810;9.148;2023-03-01T19:05:44;98329.59;;;2.76;71.17
28312;BME280;15572;48.810;9.148;2023-03-01T19:10:40;98326.78;;;2.68;71.52
28312;BME280;15572;48.810;9.148;2023-03-01T19:15:38;98325.28;;;2.56;71.68
28312;BME280;15572;48.810;9.148;2023-03-01T19:20:36;98313.75;;;2.36;72.98
28312;BME280;15572;48.810;9.148;2023-03-01T19:25:32;98318.97;;;2.19;73.95
28312;BME280;15572;48.810;9.148;2023-03-01T19:30:29;98317.25;;;1.98;76.41
28312;BME280;15572;48.810;9.148;2023-03-01T19:35:25;98301.13;;;1.81;76.78
28312;BME280;15572;48.810;9.148;2023-03-01T19:40:49;98307.69;;;1.67;77.72
28312;BME280;15572;48.810;9.148;2023-03-01T19:46:01;98312.88;;;1.59;78.91
28312;BME280;15572;48.810;9.148;2023-03-01T19:51:01;98311.97;;;1.39;79.39
28312;BME280;15572;48.810;9.148;2023-03-01T19:56:00;98314.63;;;1.39;80.29
28312;BME280;15572;48.810;9.148;2023-03-01T20:00:57;98316.59;;;1.27;82.04
28312;BME280;15572;48.810;9.148;2023-03-01T20:05:55;98317.38;;;1.18;82.75
28312;BME280;15572;48.810;9.148;2023-03-01T20:10:52;98320.88;;;1.09;85.65
28312;BME280;15572;48.810;9.148;2023-03-01T20:15:50;98321.84;;;1.08;84.85
28312;BME280;15572;48.810;9.148;2023-03-01T20:20:47;98323.41;;;1.11;84.17
28312;BME280;15572;48.810;9.148;2023-03-01T20:25:44;98340.25;;;1.11;83.58
28312;BME280;15572;48.810;9.148;2023-03-01T20:30:43;98336.22;;;1.17;83.44
28312;BME280;15572;48.810;9.148;2023-03-01T20:35:41;98328.66;;;1.22;84.28
28312;BME280;15572;48.810;9.148;2023-03-01T20:40:38;98322.06;;;1.26;84.06
28312;BME280;15572;48.810;9.148;2023-03-01T20:45:36;98318.41;;;1.27;84.52
28312;BME280;15572;48.810;9.148;2023-03-01T20:50:32;98318.22;;;1.19;85.06
28312;BME280;15572;48.810;9.148;2023-03-01T20:55:31;98313.19;;;1.16;85.30
28312;BME280;15572;48.810;9.148;2023-03-01T21:00:28;98310.19;;;1.09;85.50
28312;BME280;15572;48.810;9.148;2023-03-01T21:05:24;98308.06;;;1.03;85.97
28312;BME280;15572;48.810;9.148;2023-03-01T21:10:21;98311.41;;;0.96;86.55
28312;BME280;15572;48.810;9.148;2023-03-01T21:15:19;98305.31;;;0.84;87.20
28312;BME280;15572;48.810;9.148;2023-03-01T21:20:17;98304.28;;;0.75;87.76
28312;BME280;15572;48.810;9.148;2023-03-01T21:25:14;98305.00;;;0.77;90.09
28312;BME280;15572;48.810;9.148;2023-03-01T21:30:11;98304.59;;;0.82;89.52
28312;BME280;15572;48.810;9.148;2023-03-01T21:35:09;98302.88;;;0.71;89.97
28312;BME280;15572;48.810;9.148;2023-03-01T21:40:07;98296.66;;;0.61;90.08
28312;BME280;15572;48.810;9.148;2023-03-01T21:45:05;98288.03;;;0.48;90.60
28312;BME280;15572;48.810;9.148;2023-03-01T21:50:02;98289.19;;;0.34;96.49
28312;BME280;15572;48.810;9.148;2023-03-01T21:55:00;98289.19;;;0.14;97.25
28312;BME280;15572;48.810;9.148;2023-03-01T21:59:57;98278.03;;;-0.01;97.71
28312;BME280;15572;48.810;9.148;2023-03-01T22:04:53;98268.97;;;-0.10;98.83
28312;BME280;15572;48.810;9.148;2023-03-01T22:09:51;98275.53;;;-0.14;98.56
28312;BME280;15572;48.810;9.148;2023-03-01T22:14:49;98273.25;;;-0.18;97.94
28312;BME280;15572;48.810;9.148;2023-03-01T22:19:45;98289.34;;;-0.20;98.03
28312;BME280;15572;48.810;9.148;2023-03-01T22:24:42;98273.75;;;-0.24;98.56
28312;BME280;15572;48.810;9.148;2023-03-01T22:29:38;98277.66;;;-0.28;99.81
28312;BME280;15572;48.810;9.148;2023-03-01T22:34:36;98275.16;;;-0.41;100.00
28312;BME280;15572;48.810;9.148;2023-03-01T22:39:33;98282.16;;;-0.40;100.00
28312;BME280;15572;48.810;9.148;2023-03-01T22:44:29;98285.44;;;-0.48;100.00
28312;BME280;15572;48.810;9.148;2023-03-01T22:49:26;98276.25;;;-0.44;100.00
28312;BME280;15572;48.810;9.148;2023-03-01T22:54:24;98269.38;;;-0.46;100.00
28312;BME280;15572;48.810;9.148;2023-03-01T22:59:21;98269.00;;;-0.53;100.00
28312;BME280;15572;48.810;9.148;2023-03-01T23:04:18;98273.75;;;-0.56;100.00
28312;BME280;15572;48.810;9.148;2023-03-01T23:09:16;98272.16;;;-0.59;100.00
28312;BME280;15572;48.810;9.148;2023-03-01T23:14:15;98273.66;;;-0.66;100.00
28312;BME280;15572;48.810;9.148;2023-03-01T23:19:11;98266.19;;;-0.72;100.00
28312;BME280;15572;48.810;9.148;2023-03-01T23:24:10;98265.81;;;-0.67;100.00
28312;BME280;15572;48.810;9.148;2023-03-01T23:29:07;98256.59;;;-0.63;100.00
28312;BME280;15572;48.810;9.148;2023-03-01T23:34:05;98259.75;;;-0.69;100.00
28312;BME280;15572;48.810;9.148;2023-03-01T23:39:04;98251.34;;;-0.86;100.00
28312;BME280;15572;48.810;9.148;2023-03-01T23:44:03;98257.50;;;-0.96;100.00
28312;BME280;15572;48.810;9.148;2023-03-01T23:49:00;98254.16;;;-0.98;100.00
28312;BME280;15572;48.810;9.148;2023-03-01T23:54:01;98255.97;;;-0.99;100.00
28312;BME280;15572;48.810;9.148;2023-03-01T23:59:01;98255.84;;;-0.97;100.00
